Time;durP1;ratioP1;P1;durP2;ratioP2;P2;SDS_P1;SDS_P2;PMS_P1;PMS_P2;Temp;Humidity;BMP_temperature;BMP_pressure;BME280_temperature;BME280_humidity;BME280_pressure;Samples;Min_cycle;Max_cycle;Signal;HPM_P1;HPM_P2
2023/12/04 00:01:58;;;;;;;16.73;9.17;;;12.00;54.80;;;;;;5050113;28;20453;-76
2023/12/04 00:04:26;;;;;;;16.37;9.20;;;12.00;55.10;;;;;;5054793;28;20461;-79
2023/12/04 00:06:54;;;;;;;15.70;9.40;;;12.00;55.00;;;;;;5056381;28;20553;-78
2023/12/04 00:09:24;;;;;;;14.73;9.50;;;12.00;55.10;;;;;;5054960;28;20438;-76
2023/12/04 00:11:53;;;;;;;14.17;9.67;;;12.00;54.70;;;;;;5050280;28;20533;-75
2023/12/04 00:14:21;;;;;;;17.70;10.20;;;12.00;54.90;;;;;;5054739;28;20498;-76
2023/12/04 00:16:49;;;;;;;15.83;10.20;;;12.00;54.80;;;;;;5054923;28;20469;-76
2023/12/04 00:19:17;;;;;;;16.40;10.20;;;11.90;54.60;;;;;;5057371;28;20470;-75
2023/12/04 00:21:45;;;;;;;17.13;10.20;;;11.90;54.70;;;;;;5058625;28;20442;-77
2023/12/04 00:24:13;;;;;;;14.20;9.10;;;11.90;54.70;;;;;;5055293;28;20438;-75
2023/12/04 00:26:41;;;;;;;14.93;9.40;;;12.00;54.80;;;;;;5043666;28;20668;-76
2023/12/04 00:29:11;;;;;;;16.00;10.57;;;11.90;54.50;;;;;;5047372;28;20454;-74
2023/12/04 00:31:39;;;;;;;17.73;9.90;;;11.90;54.70;;;;;;5053772;28;20521;-75
2023/12/04 00:34:07;;;;;;;14.03;8.87;;;12.00;54.70;;;;;;5044457;28;20474;-76
2023/12/04 00:36:35;;;;;;;16.53;10.00;;;12.00;54.60;;;;;;5050271;28;20467;-75
2023/12/04 00:39:03;;;;;;;14.33;9.40;;;12.00;54.60;;;;;;5054398;28;20435;-76
2023/12/04 00:41:31;;;;;;;15.80;9.13;;;12.00;54.60;;;;;;5054275;28;20964;-76
2023/12/04 00:44:00;;;;;;;15.97;9.60;;;11.90;54.70;;;;;;5053665;28;20506;-76
2023/12/04 00:46:29;;;;;;;19.10;9.57;;;11.90;54.70;;;;;;5053053;28;20530;-76
2023/12/04 00:48:58;;;;;;;14.43;9.10;;;12.00;54.60;;;;;;5049726;28;20438;-76
2023/12/04 00:51:26;;;;;;;16.77;9.50;;;11.90;54.60;;;;;;5051829;28;20556;-77
2023/12/04 00:53:54;;;;;;;15.03;9.23;;;11.90;54.60;;;;;;5053750;28;20477;-76
2023/12/04 00:56:22;;;;;;;14.37;9.43;;;11.90;54.70;;;;;;5053730;28;20486;-76
2023/12/04 00:58:49;;;;;;;15.07;9.50;;;11.90;54.80;;;;;;5054200;28;20470;-76
2023/12/04 01:01:17;;;;;;;13.73;9.20;;;11.90;54.70;;;;;;5054408;28;20462;-76
2023/12/04 01:03:48;;;;;;;14.60;9.20;;;11.90;54.60;;;;;;5053871;28;20443;-77
2023/12/04 01:06:22;;;;;;;14.30;8.83;;;11.90;54.70;;;;;;5053907;28;20474;-75
2023/12/04 01:08:50;;;;;;;14.93;9.03;;;11.90;54.70;;;;;;5093985;22;20477;-78
2023/12/04 01:11:19;;;;;;;14.10;9.27;;;11.90;54.60;;;;;;5074502;28;20480;-78
2023/12/04 01:13:47;;;;;;;15.40;9.70;;;11.90;54.70;;;;;;5076831;28;20442;-77
2023/12/04 01:16:15;;;;;;;15.53;9.93;;;11.90;54.60;;;;;;5075099;28;20469;-78
2023/12/04 01:18:43;;;;;;;17.77;10.80;;;11.90;54.60;;;;;;5074759;28;20467;-79
2023/12/04 01:21:14;;;;;;;16.07;9.40;;;11.90;54.70;;;;;;5054812;28;20534;-78
2023/12/04 01:23:42;;;;;;;14.33;8.83;;;11.90;54.50;;;;;;5053639;28;20446;-78
2023/12/04 01:26:11;;;;;;;12.60;8.63;;;11.90;54.80;;;;;;5054084;28;20439;-78
2023/12/04 01:28:40;;;;;;;19.43;10.00;;;11.90;54.80;;;;;;5073171;28;20465;-79
2023/12/04 01:31:08;;;;;;;14.90;8.30;;;11.80;54.60;;;;;;5083940;28;20446;-78
2023/12/04 01:33:37;;;;;;;16.77;9.87;;;11.90;54.60;;;;;;5081559;28;20494;-80
2023/12/04 01:36:06;;;;;;;16.83;9.57;;;11.90;54.80;;;;;;5078823;28;20479;-79
2023/12/04 01:38:36;;;;;;;14.40;9.43;;;11.90;54.60;;;;;;5084029;28;20457;-80
2023/12/04 01:41:05;;;;;;;14.93;9.30;;;11.90;54.80;;;;;;5083886;28;20480;-79
2023/12/04 01:43:34;;;;;;;15.20;9.50;;;11.90;54.70;;;;;;5082972;28;20448;-78
2023/12/04 01:46:02;;;;;;;14.97;8.70;;;11.90;54.80;;;;;;5085270;28;20476;-79
2023/12/04 01:48:31;;;;;;;15.27;9.30;;;11.90;54.80;;;;;;5078410;28;20462;-79
2023/12/04 01:50:59;;;;;;;13.63;9.07;;;11.80;54.70;;;;;;5074204;28;20470;-78
2023/12/04 01:53:27;;;;;;;16.50;9.30;;;11.80;54.80;;;;;;5067284;28;20446;-78
2023/12/04 01:55:57;;;;;;;15.07;9.23;;;11.90;54.70;;;;;;5054119;28;20498;-78
2023/12/04 01:58:25;;;;;;;14.63;9.17;;;11.90;54.80;;;;;;5054565;28;20501;-79
2023/12/04 02:00:54;;;;;;;17.30;10.23;;;11.80;54.50;;;;;;5053737;28;20465;-79
2023/12/04 02:03:22;;;;;;;15.50;9.50;;;11.80;54.90;;;;;;5054219;28;20442;-79
2023/12/04 02:05:50;;;;;;;17.67;9.87;;;11.80;54.70;;;;;;5054797;28;20446;-79
2023/12/04 02:08:19;;;;;;;15.63;9.40;;;11.80;54.60;;;;;;5053834;28;20478;-80
2023/12/04 02:10:47;;;;;;;15.13;8.90;;;11.80;54.80;;;;;;5055319;28;20470;-78
2023/12/04 02:13:17;;;;;;;16.17;9.00;;;11.80;54.80;;;;;;5055102;28;20521;-79
2023/12/04 02:15:45;;;;;;;14.77;9.00;;;11.80;54.60;;;;;;5054918;28;20480;-78
2023/12/04 02:18:13;;;;;;;15.47;9.67;;;11.80;54.90;;;;;;5054337;28;20477;-79
2023/12/04 02:20:43;;;;;;;13.37;8.83;;;11.80;54.90;;;;;;5054326;28;20457;-79
2023/12/04 02:23:11;;;;;;;16.17;9.60;;;11.80;54.80;;;;;;5053944;28;20443;-79
2023/12/04 02:25:40;;;;;;;15.10;9.70;;;11.80;54.80;;;;;;5048742;28;20458;-79
2023/12/04 02:28:08;;;;;;;15.30;8.87;;;11.80;54.70;;;;;;5053599;28;20461;-78
2023/12/04 02:30:37;;;;;;;15.60;10.13;;;11.80;54.80;;;;;;5053787;28;20443;-79
2023/12/04 02:33:06;;;;;;;15.33;9.30;;;11.70;55.60;;;;;;5053332;28;20449;-79
2023/12/04 02:35:35;;;;;;;16.77;9.40;;;11.80;54.90;;;;;;5052976;28;20535;-79
2023/12/04 02:38:03;;;;;;;15.50;8.80;;;11.80;54.90;;;;;;5053165;28;20451;-79
2023/12/04 02:40:31;;;;;;;18.13;9.87;;;11.80;54.80;;;;;;5053257;28;20509;-79
2023/12/04 02:43:01;;;;;;;16.67;10.37;;;11.80;55.00;;;;;;5052555;28;20446;-77
2023/12/04 02:45:28;;;;;;;14.60;9.20;;;11.70;54.70;;;;;;5053821;28;20507;-78
2023/12/04 02:47:56;;;;;;;15.87;9.60;;;11.70;54.90;;;;;;5052828;28;20516;-78
2023/12/04 02:50:25;;;;;;;14.43;8.77;;;11.80;55.00;;;;;;5053721;28;20541;-78
2023/12/04 02:52:53;;;;;;;18.33;9.87;;;11.80;54.80;;;;;;5056147;28;20468;-79
2023/12/04 02:55:21;;;;;;;14.70;8.67;;;11.80;54.90;;;;;;5057131;28;20478;-79
2023/12/04 02:57:50;;;;;;;13.63;8.80;;;11.70;54.90;;;;;;5058033;28;20477;-79
2023/12/04 03:00:20;;;;;;;14.97;9.20;;;11.80;55.00;;;;;;5071325;28;20445;-81
2023/12/04 03:02:47;;;;;;;13.33;8.57;;;11.80;55.00;;;;;;5081833;28;20543;-80
2023/12/04 03:05:16;;;;;;;14.10;8.80;;;11.80;54.90;;;;;;5078172;28;20434;-80
2023/12/04 03:07:43;;;;;;;15.10;9.27;;;11.80;55.00;;;;;;5079119;28;20492;-78
2023/12/04 03:10:12;;;;;;;13.00;8.47;;;11.80;55.00;;;;;;5076272;28;20473;-80
2023/12/04 03:12:40;;;;;;;14.70;9.23;;;11.80;55.10;;;;;;5076924;28;20456;-79
2023/12/04 03:15:10;;;;;;;12.43;7.90;;;11.80;55.00;;;;;;5074144;28;20493;-81
2023/12/04 03:17:40;;;;;;;13.30;8.10;;;11.80;55.70;;;;;;5053459;28;20458;-79
2023/12/04 03:20:09;;;;;;;11.60;8.07;;;11.70;55.10;;;;;;5052474;28;20462;-79
2023/12/04 03:22:37;;;;;;;11.27;7.70;;;11.80;55.30;;;;;;5051980;28;20442;-79
2023/12/04 03:25:06;;;;;;;13.43;8.33;;;11.80;55.00;;;;;;5052100;28;20493;-80
2023/12/04 03:27:34;;;;;;;13.57;8.07;;;11.70;55.30;;;;;;5051914;28;20486;-80
2023/12/04 03:30:02;;;;;;;13.37;8.50;;;11.80;55.40;;;;;;5051791;28;20438;-80
2023/12/04 03:32:30;;;;;;;11.43;8.10;;;11.80;55.30;;;;;;5052566;28;20439;-79
2023/12/04 03:35:01;;;;;;;11.17;7.83;;;11.80;55.40;;;;;;5052000;28;20485;-79
2023/12/04 03:37:28;;;;;;;13.60;7.70;;;11.80;55.30;;;;;;5052183;28;20466;-78
2023/12/04 03:39:57;;;;;;;12.00;8.03;;;11.80;55.30;;;;;;5052608;28;20530;-79
2023/12/04 03:42:25;;;;;;;11.93;8.20;;;11.80;55.40;;;;;;5052625;28;20443;-79
2023/12/04 03:44:53;;;;;;;13.53;8.17;;;11.80;55.40;;;;;;5053948;28;20447;-79
2023/12/04 03:47:23;;;;;;;16.57;10.03;;;11.80;55.40;;;;;;5073916;28;20465;-80
2023/12/04 03:49:51;;;;;;;18.53;10.80;;;11.80;55.40;;;;;;5072312;28;20458;-80
2023/12/04 03:52:20;;;;;;;17.33;11.70;;;11.80;55.40;;;;;;5075456;28;20442;-80
2023/12/04 03:54:49;;;;;;;20.47;12.20;;;11.80;55.40;;;;;;5083404;28;20449;-79
2023/12/04 03:57:16;;;;;;;20.63;11.63;;;11.80;55.50;;;;;;5065484;28;20471;-77
2023/12/04 03:59:44;;;;;;;23.77;13.87;;;11.80;55.30;;;;;;5071337;28;20441;-79
2023/12/04 04:02:13;;;;;;;24.77;14.30;;;11.70;55.50;;;;;;5086559;28;20448;-79
2023/12/04 04:04:41;;;;;;;25.23;14.23;;;11.80;55.50;;;;;;5076910;28;20442;-80
2023/12/04 04:07:10;;;;;;;26.00;13.93;;;11.80;55.50;;;;;;5073731;28;20473;-79
2023/12/04 04:09:39;;;;;;;27.23;14.97;;;11.80;55.60;;;;;;5081353;28;20464;-79
2023/12/04 04:12:07;;;;;;;30.87;16.23;;;11.80;55.50;;;;;;5091829;28;20471;-79
2023/12/04 04:14:35;;;;;;;29.20;16.17;;;11.80;55.50;;;;;;5084353;28;20475;-79
2023/12/04 04:17:04;;;;;;;31.53;17.27;;;11.80;55.50;;;;;;5090476;28;20512;-80
2023/12/04 04:19:32;;;;;;;28.03;15.77;;;11.80;56.00;;;;;;5094209;28;20510;-80
2023/12/04 04:22:00;;;;;;;29.03;15.33;;;11.80;56.10;;;;;;5089156;28;20444;-79
2023/12/04 04:24:28;;;;;;;28.40;14.63;;;11.80;55.50;;;;;;5069249;28;20501;-78
2023/12/04 04:26:58;;;;;;;28.77;15.67;;;11.80;55.40;;;;;;5074707;28;20442;-79
2023/12/04 04:29:26;;;;;;;30.10;16.20;;;11.80;55.50;;;;;;5075285;28;20473;-79
2023/12/04 04:31:54;;;;;;;28.33;15.83;;;11.70;55.50;;;;;;5092138;28;20433;-79
2023/12/04 04:34:22;;;;;;;29.80;16.20;;;11.80;55.50;;;;;;5071097;28;20445;-79
2023/12/04 04:36:50;;;;;;;29.47;16.90;;;11.80;55.70;;;;;;5070427;28;20522;-79
2023/12/04 04:39:19;;;;;;;30.30;15.80;;;11.80;55.60;;;;;;5083626;28;20468;-79
2023/12/04 04:41:47;;;;;;;26.20;15.03;;;11.80;55.50;;;;;;5076262;28;20495;-78
2023/12/04 04:44:17;;;;;;;32.03;17.03;;;11.80;55.60;;;;;;5075597;28;20502;-79
2023/12/04 04:46:45;;;;;;;28.83;16.47;;;11.80;55.70;;;;;;5082804;28;20467;-79
2023/12/04 04:49:13;;;;;;;25.77;15.07;;;11.80;55.60;;;;;;5075010;28;20433;-79
2023/12/04 04:51:41;;;;;;;28.80;16.27;;;11.80;55.70;;;;;;5071617;28;20441;-80
2023/12/04 04:54:09;;;;;;;28.83;16.10;;;11.80;55.80;;;;;;5084910;28;20437;-80
2023/12/04 04:56:37;;;;;;;25.50;14.90;;;11.80;55.80;;;;;;5084009;28;20465;-80
2023/12/04 04:59:05;;;;;;;25.23;14.73;;;11.80;55.80;;;;;;5083711;28;20511;-79
2023/12/04 05:01:34;;;;;;;27.83;15.23;;;11.80;55.70;;;;;;5076806;28;20454;-80
2023/12/04 05:04:02;;;;;;;27.10;14.47;;;11.80;55.70;;;;;;5079904;28;20442;-82
2023/12/04 05:06:31;;;;;;;24.43;14.23;;;11.80;55.90;;;;;;5081639;28;20449;-80
2023/12/04 05:08:59;;;;;;;24.03;14.07;;;11.80;55.90;;;;;;5079473;28;20492;-81
2023/12/04 05:11:27;;;;;;;22.67;13.80;;;11.80;56.00;;;;;;5070368;28;20443;-80
2023/12/04 05:13:55;;;;;;;26.70;14.70;;;11.80;56.00;;;;;;5080210;28;20437;-82
2023/12/04 05:16:23;;;;;;;25.60;14.80;;;11.80;55.80;;;;;;5086504;28;20534;-79
2023/12/04 05:18:52;;;;;;;25.97;13.77;;;11.80;55.90;;;;;;5080062;28;20527;-82
2023/12/04 05:21:20;;;;;;;26.27;14.57;;;11.80;56.00;;;;;;5078479;28;20480;-83
2023/12/04 05:23:48;;;;;;;24.37;14.20;;;11.80;56.00;;;;;;5082179;28;20438;-80
2023/12/04 05:26:17;;;;;;;24.17;13.90;;;11.80;56.10;;;;;;5081594;28;20460;-81
2023/12/04 05:28:46;;;;;;;21.90;13.30;;;11.80;56.00;;;;;;5082698;28;20466;-80
2023/12/04 05:31:14;;;;;;;23.67;12.80;;;11.80;56.00;;;;;;5082835;28;20473;-81
2023/12/04 05:33:43;;;;;;;22.40;13.20;;;11.80;56.10;;;;;;5080104;28;20453;-80
2023/12/04 05:36:14;;;;;;;21.73;12.17;;;11.80;56.10;;;;;;5084063;28;20450;-82
2023/12/04 05:38:42;;;;;;;23.60;13.70;;;11.80;56.20;;;;;;5083755;28;20462;-81
2023/12/04 05:41:10;;;;;;;21.63;12.60;;;11.90;56.30;;;;;;5083173;28;20499;-80
2023/12/04 05:43:38;;;;;;;20.40;12.10;;;11.90;56.30;;;;;;5082517;28;20460;-79
2023/12/04 05:46:06;;;;;;;20.40;12.03;;;11.90;56.30;;;;;;5088769;28;20432;-79
2023/12/04 05:48:34;;;;;;;19.80;12.23;;;11.90;56.30;;;;;;5091337;28;20456;-77
2023/12/04 05:51:02;;;;;;;19.00;12.30;;;11.90;56.30;;;;;;5071951;28;20446;-78
2023/12/04 05:53:31;;;;;;;21.57;12.33;;;11.90;56.30;;;;;;5088388;28;20434;-78
2023/12/04 05:55:59;;;;;;;20.60;12.40;;;11.90;56.30;;;;;;5070662;28;20446;-78
2023/12/04 05:58:26;;;;;;;18.43;11.77;;;11.90;56.40;;;;;;5075703;28;20519;-79
2023/12/04 06:00:55;;;;;;;19.60;12.40;;;11.90;56.30;;;;;;5076466;28;20465;-81
2023/12/04 06:03:22;;;;;;;20.17;11.77;;;11.90;56.40;;;;;;5080414;28;20430;-80
2023/12/04 06:05:50;;;;;;;20.40;11.50;;;11.90;56.40;;;;;;5072679;28;20478;-80
2023/12/04 06:08:24;;;;;;;18.40;10.97;;;11.90;56.40;;;;;;5072411;28;20473;-82
2023/12/04 06:10:53;;;;;;;20.30;11.77;;;11.90;56.40;;;;;;5080022;28;20437;-81
2023/12/04 06:13:21;;;;;;;18.40;10.83;;;11.90;56.40;;;;;;5073216;28;20507;-81
2023/12/04 06:15:50;;;;;;;20.67;11.90;;;11.90;56.40;;;;;;5078115;28;20475;-78
2023/12/04 06:18:18;;;;;;;19.03;10.73;;;11.90;56.60;;;;;;5074223;28;20473;-78
2023/12/04 06:20:46;;;;;;;16.90;11.50;;;11.90;56.50;;;;;;5073010;28;20446;-78
2023/12/04 06:23:14;;;;;;;20.43;11.20;;;11.90;56.40;;;;;;5061636;28;20470;-77
2023/12/04 06:25:43;;;;;;;22.10;10.50;;;11.90;56.50;;;;;;5073240;28;20504;-78
2023/12/04 06:28:14;;;;;;;18.00;10.73;;;11.90;56.50;;;;;;5065535;28;20553;-79
2023/12/04 06:30:42;;;;;;;18.30;9.70;;;11.90;56.50;;;;;;5069518;28;20448;-79
2023/12/04 06:33:12;;;;;;;14.97;9.00;;;11.90;56.50;;;;;;5062494;28;20443;-78
2023/12/04 06:35:41;;;;;;;15.20;9.63;;;11.90;56.50;;;;;;5071688;28;20433;-79
2023/12/04 06:38:09;;;;;;;16.47;10.07;;;11.90;56.70;;;;;;5073253;28;20561;-79
2023/12/04 06:40:38;;;;;;;14.70;10.30;;;12.00;56.70;;;;;;5073287;28;20472;-79
2023/12/04 06:43:07;;;;;;;14.80;9.83;;;12.00;56.80;;;;;;5075755;28;20468;-80
2023/12/04 06:45:37;;;;;;;15.50;9.67;;;12.00;56.60;;;;;;5088280;28;20472;-79
2023/12/04 06:48:06;;;;;;;15.87;10.00;;;12.00;56.70;;;;;;5098648;28;20456;-78
2023/12/04 06:50:34;;;;;;;15.17;9.63;;;12.00;56.80;;;;;;5092766;28;20437;-79
2023/12/04 06:53:02;;;;;;;15.70;10.23;;;11.90;56.40;;;;;;5090298;28;20520;-78
2023/12/04 06:55:30;;;;;;;14.33;8.80;;;12.00;56.80;;;;;;5072887;28;20480;-79
2023/12/04 06:57:58;;;;;;;14.73;9.33;;;12.00;56.80;;;;;;5073387;28;20504;-78
2023/12/04 07:00:27;;;;;;;14.80;9.97;;;12.00;56.80;;;;;;5076230;28;20519;-79
2023/12/04 07:02:58;;;;;;;15.60;9.77;;;12.00;56.80;;;;;;5079829;28;20520;-78
2023/12/04 07:05:26;;;;;;;14.57;9.70;;;12.00;56.80;;;;;;5056862;28;20441;-77
2023/12/04 07:07:55;;;;;;;15.23;9.23;;;12.00;56.80;;;;;;5086649;28;20460;-78
2023/12/04 07:10:44;;;;;;;14.80;9.43;;;12.00;56.70;;;;;;5089032;28;20441;-76
2023/12/04 07:13:13;;;;;;;20.50;13.48;;;12.00;56.80;;;;;;5077604;28;20438;-76
2023/12/04 07:15:41;;;;;;;29.77;15.93;;;10.90;49.30;;;;;;5073266;28;20200;-76
2023/12/04 07:18:10;;;;;;;27.63;14.97;;;8.80;53.30;;;;;;5079979;28;20474;-74
2023/12/04 07:20:39;;;;;;;26.13;14.17;;;8.00;55.10;;;;;;5086904;28;20443;-74
2023/12/04 07:23:07;;;;;;;25.43;14.40;;;7.30;57.00;;;;;;5094077;28;20528;-78
2023/12/04 07:25:36;;;;;;;27.00;13.80;;;7.30;60.80;;;;;;5097358;28;20445;-77
2023/12/04 07:28:06;;;;;;;25.63;13.47;;;8.20;61.20;;;;;;5095686;28;20492;-80
2023/12/04 07:30:34;;;;;;;21.53;12.77;;;9.00;59.80;;;;;;5078824;28;20544;-79
2023/12/04 07:33:02;;;;;;;21.67;12.60;;;9.50;58.50;;;;;;5075688;28;20501;-78
2023/12/04 07:35:52;;;;;;;24.73;12.57;;;10.00;56.80;;;;;;5052455;28;20435;-78
2023/12/04 07:38:21;;;;;;;23.07;12.70;;;10.30;56.00;;;;;;5053572;28;20474;-79
2023/12/04 07:40:51;;;;;;;21.10;12.17;;;10.60;55.60;;;;;;5061461;28;20453;-79
2023/12/04 07:43:19;;;;;;;22.10;12.27;;;10.80;55.20;;;;;;5079896;28;20503;-78
2023/12/04 07:45:47;;;;;;;19.70;11.90;;;10.90;54.90;;;;;;5074928;28;20482;-77
2023/12/04 07:48:16;;;;;;;20.30;11.93;;;11.10;55.00;;;;;;5081510;28;20508;-78
2023/12/04 07:50:45;;;;;;;22.30;12.83;;;11.20;54.80;;;;;;5077048;28;20465;-80
2023/12/04 07:53:14;;;;;;;21.27;11.50;;;11.30;54.80;;;;;;5082398;28;20434;-78
2023/12/04 07:55:43;;;;;;;19.53;10.83;;;11.40;54.60;;;;;;5089956;28;20441;-78
2023/12/04 07:58:11;;;;;;;19.27;10.50;;;11.40;54.40;;;;;;5065041;28;20552;-78
2023/12/04 08:00:40;;;;;;;18.57;10.50;;;11.50;54.80;;;;;;5087981;28;20482;-79
2023/12/04 08:03:08;;;;;;;21.23;9.80;;;11.70;55.10;;;;;;5079736;28;20436;-77
2023/12/04 08:05:36;;;;;;;17.90;10.13;;;11.80;55.30;;;;;;5087823;28;20451;-77
2023/12/04 08:08:05;;;;;;;19.57;10.17;;;11.80;55.20;;;;;;5078748;28;20510;-78
2023/12/04 08:10:34;;;;;;;19.90;10.17;;;11.90;55.50;;;;;;5101500;28;20444;-80
2023/12/04 08:13:02;;;;;;;17.30;10.50;;;11.90;55.50;;;;;;5090705;28;20429;-79
2023/12/04 08:15:30;;;;;;;15.50;9.40;;;12.00;55.50;;;;;;5091777;28;20436;-80
2023/12/04 08:18:00;;;;;;;15.03;9.47;;;12.00;55.40;;;;;;5094577;28;20523;-81
2023/12/04 08:20:28;;;;;;;15.17;8.80;;;12.00;55.60;;;;;;5090462;28;20450;-80
2023/12/04 08:23:07;;;;;;;15.97;9.13;;;12.10;55.70;;;;;;5091179;28;20512;-80
2023/12/04 08:25:38;;;;;;;15.43;8.93;;;12.10;55.70;;;;;;5090833;28;20441;-80
2023/12/04 08:28:08;;;;;;;19.20;8.47;;;12.10;55.70;;;;;;5091857;28;20510;-80
2023/12/04 08:30:37;;;;;;;19.30;9.10;;;12.20;55.70;;;;;;5088803;28;20487;-80
2023/12/04 08:33:05;;;;;;;15.67;8.80;;;12.20;55.80;;;;;;5084216;28;20465;-80
2023/12/04 08:35:33;;;;;;;21.07;9.17;;;12.20;55.90;;;;;;5080975;28;20437;-80
2023/12/04 08:38:01;;;;;;;14.50;8.30;;;12.20;55.80;;;;;;5085013;28;20531;-80
2023/12/04 08:40:30;;;;;;;12.93;7.53;;;12.30;55.90;;;;;;5085270;28;20433;-80
2023/12/04 08:42:59;;;;;;;12.93;7.80;;;12.30;56.00;;;;;;5091764;28;20471;-79
2023/12/04 08:45:27;;;;;;;14.90;7.70;;;12.30;55.90;;;;;;5077959;28;20491;-80
2023/12/04 08:47:55;;;;;;;13.70;7.20;;;12.30;56.00;;;;;;5082599;28;20453;-80
2023/12/04 08:50:25;;;;;;;16.80;7.83;;;12.30;55.90;;;;;;5084146;28;20426;-80
2023/12/04 08:52:53;;;;;;;11.80;6.90;;;12.40;56.10;;;;;;5083945;28;20465;-81
2023/12/04 08:55:21;;;;;;;13.43;7.50;;;12.40;56.10;;;;;;5082606;28;20438;-79
2023/12/04 08:57:49;;;;;;;13.47;7.40;;;12.40;56.00;;;;;;5079967;28;20468;-80
2023/12/04 09:00:19;;;;;;;11.60;7.43;;;12.40;56.10;;;;;;5080009;28;20434;-81
2023/12/04 09:02:48;;;;;;;13.83;7.57;;;12.40;56.00;;;;;;5061194;28;20426;-78
2023/12/04 09:05:29;;;;;;;11.37;7.03;;;12.40;56.10;;;;;;5069506;28;20441;-80
2023/12/04 09:07:58;;;;;;;12.30;6.50;;;12.50;56.20;;;;;;5079577;28;20461;-80
2023/12/04 09:10:47;;;;;;;11.37;6.63;;;12.50;56.10;;;;;;5077620;28;20506;-80
2023/12/04 09:13:35;;;;;;;9.80;6.23;;;12.50;56.10;;;;;;5063992;28;20432;-79
2023/12/04 09:16:06;;;;;;;11.03;5.97;;;12.50;56.20;;;;;;5080311;28;21024;-79
2023/12/04 09:18:34;;;;;;;13.63;6.30;;;12.50;56.20;;;;;;5090320;28;20470;-80
2023/12/04 09:21:03;;;;;;;9.20;6.10;;;12.60;56.30;;;;;;5086741;28;20441;-80
2023/12/04 09:23:31;;;;;;;9.00;6.60;;;12.60;56.20;;;;;;5084923;28;20438;-81
2023/12/04 09:26:00;;;;;;;11.13;6.10;;;12.60;56.30;;;;;;5085912;28;20449;-80
2023/12/04 09:28:28;;;;;;;14.63;6.50;;;12.60;56.40;;;;;;5099683;28;20465;-81
2023/12/04 09:30:57;;;;;;;7.87;5.93;;;12.60;56.30;;;;;;5091013;28;20442;-77
2023/12/04 09:33:27;;;;;;;7.20;5.40;;;12.60;56.20;;;;;;5070827;28;20442;-81
2023/12/04 09:35:55;;;;;;;8.30;5.40;;;12.60;56.40;;;;;;5081348;28;20434;-80
2023/12/04 09:38:23;;;;;;;9.77;6.10;;;12.60;56.50;;;;;;5078525;28;20523;-80
2023/12/04 09:40:52;;;;;;;7.53;5.20;;;12.60;56.40;;;;;;5083145;28;20471;-79
2023/12/04 09:43:19;;;;;;;8.47;5.30;;;12.70;56.50;;;;;;5078103;28;20500;-79
2023/12/04 09:45:48;;;;;;;12.07;5.90;;;12.70;56.40;;;;;;5072829;28;20460;-79
2023/12/04 09:48:16;;;;;;;10.70;5.77;;;12.70;56.50;;;;;;5078166;28;20520;-79
2023/12/04 09:50:46;;;;;;;8.30;5.30;;;12.70;56.50;;;;;;5077476;28;20438;-79
2023/12/04 09:53:14;;;;;;;7.47;4.80;;;12.70;56.50;;;;;;5077542;28;20476;-79
2023/12/04 09:55:42;;;;;;;7.30;5.20;;;12.70;56.50;;;;;;5078485;28;20453;-79
2023/12/04 09:58:11;;;;;;;8.53;5.20;;;12.70;56.40;;;;;;5080383;28;20438;-79
2023/12/04 10:00:39;;;;;;;8.50;5.00;;;12.70;56.30;;;;;;5083723;28;20497;-79
2023/12/04 10:03:07;;;;;;;7.90;4.80;;;12.80;56.60;;;;;;5075869;28;20513;-78
2023/12/04 10:05:35;;;;;;;13.73;5.13;;;12.80;56.70;;;;;;5075344;28;20425;-80
2023/12/04 10:08:05;;;;;;;7.83;5.10;;;12.80;56.60;;;;;;5083088;28;20500;-82
2023/12/04 10:10:34;;;;;;;15.10;4.80;;;12.80;56.60;;;;;;5076666;28;20430;-79
2023/12/04 10:13:03;;;;;;;5.20;4.47;;;12.80;56.60;;;;;;5076889;28;20448;-80
2023/12/04 10:15:31;;;;;;;7.40;5.03;;;12.80;56.70;;;;;;5070320;28;20438;-79
2023/12/04 10:17:59;;;;;;;6.00;4.90;;;12.80;56.50;;;;;;5091118;28;20499;-80
2023/12/04 10:20:28;;;;;;;8.50;5.20;;;12.80;56.60;;;;;;5090968;28;20468;-80
2023/12/04 10:22:56;;;;;;;5.40;4.50;;;12.90;56.60;;;;;;5077379;28;20446;-79
2023/12/04 10:25:28;;;;;;;6.80;4.77;;;12.90;56.70;;;;;;5085273;28;20429;-79
2023/12/04 10:27:56;;;;;;;13.07;4.73;;;12.90;56.60;;;;;;5093132;28;20446;-78
2023/12/04 10:30:26;;;;;;;9.70;4.90;;;12.90;56.60;;;;;;5086147;28;20477;-80
2023/12/04 10:32:56;;;;;;;7.63;5.13;;;12.90;56.80;;;;;;5078678;28;20488;-79
2023/12/04 10:35:24;;;;;;;6.03;4.70;;;13.00;56.90;;;;;;5089140;28;20445;-80
2023/12/04 10:37:55;;;;;;;7.97;4.80;;;13.00;56.70;;;;;;5083535;28;20510;-79
2023/12/04 10:40:28;;;;;;;8.80;4.77;;;13.00;56.60;;;;;;5100757;28;20478;-80
2023/12/04 10:43:13;;;;;;;5.30;4.83;;;13.00;56.60;;;;;;5082362;28;20959;-79
2023/12/04 10:45:42;;;;;;;6.50;4.67;;;13.00;56.70;;;;;;5072604;28;20442;-79
2023/12/04 10:48:11;;;;;;;5.73;4.37;;;13.00;56.80;;;;;;5081053;28;20490;-80
2023/12/04 10:50:40;;;;;;;6.90;4.77;;;13.00;56.80;;;;;;5072152;28;20440;-80
2023/12/04 10:53:09;;;;;;;6.33;4.63;;;13.10;56.90;;;;;;5077550;28;20469;-79
2023/12/04 10:55:39;;;;;;;4.40;4.00;;;13.10;56.90;;;;;;5077854;28;20518;-79
2023/12/04 10:58:09;;;;;;;6.13;4.70;;;13.10;56.80;;;;;;5077959;28;20524;-79
2023/12/04 11:00:39;;;;;;;7.70;4.53;;;13.10;56.80;;;;;;5078660;28;20465;-79
2023/12/04 11:03:09;;;;;;;5.43;4.37;;;13.10;56.80;;;;;;5075291;28;20512;-80
2023/12/04 11:05:38;;;;;;;6.90;4.70;;;13.10;56.80;;;;;;5069093;28;20503;-78
2023/12/04 11:08:07;;;;;;;4.67;4.27;;;13.20;57.40;;;;;;5076221;28;20496;-80
2023/12/04 11:10:49;;;;;;;5.67;4.20;;;13.20;56.90;;;;;;5079434;28;20464;-80
2023/12/04 11:13:19;;;;;;;4.90;4.30;;;13.20;56.80;;;;;;5078264;28;20465;-80
2023/12/04 11:15:50;;;;;;;5.50;4.20;;;13.20;56.90;;;;;;5080958;28;20442;-80
2023/12/04 11:18:22;;;;;;;4.70;4.03;;;13.20;57.00;;;;;;5081827;28;20548;-79
2023/12/04 11:20:53;;;;;;;6.13;4.37;;;13.30;56.90;;;;;;5081233;28;20560;-80
2023/12/04 11:23:21;;;;;;;5.40;4.17;;;13.30;56.70;;;;;;5093566;28;20446;-79
2023/12/04 11:25:51;;;;;;;4.33;3.93;;;13.30;56.90;;;;;;5087245;28;20488;-79
2023/12/04 11:28:19;;;;;;;8.40;4.43;;;13.40;57.00;;;;;;5081186;28;20461;-78
2023/12/04 11:30:47;;;;;;;4.40;4.00;;;13.40;56.80;;;;;;5085061;28;20460;-79
2023/12/04 11:33:15;;;;;;;4.20;3.80;;;13.50;57.00;;;;;;5081138;28;20442;-79
2023/12/04 11:35:44;;;;;;;5.00;4.50;;;13.50;57.00;;;;;;5079563;28;20429;-78
2023/12/04 11:38:15;;;;;;;5.20;4.07;;;13.50;56.90;;;;;;5072618;28;20465;-79
2023/12/04 11:40:43;;;;;;;5.50;3.97;;;13.50;56.80;;;;;;5067051;28;20484;-79
2023/12/04 11:43:27;;;;;;;4.03;3.63;;;13.50;56.90;;;;;;5088707;28;20947;-78
2023/12/04 11:46:08;;;;;;;7.43;3.93;;;13.60;57.00;;;;;;5072264;28;20442;-77
2023/12/04 11:48:37;;;;;;;4.47;3.93;;;13.60;56.90;;;;;;5072484;28;20556;-79
2023/12/04 11:51:07;;;;;;;4.50;4.10;;;13.60;56.90;;;;;;5073153;28;20465;-80
2023/12/04 11:53:39;;;;;;;6.80;4.40;;;13.60;56.90;;;;;;5077833;28;20446;-80
2023/12/04 11:56:11;;;;;;;4.80;4.30;;;13.70;56.80;;;;;;5077484;28;20438;-79
2023/12/04 11:58:44;;;;;;;7.07;4.13;;;13.70;56.90;;;;;;5078120;28;20586;-77
2023/12/04 12:01:13;;;;;;;4.30;3.87;;;13.70;56.90;;;;;;5076489;28;20556;-79
2023/12/04 12:03:40;;;;;;;4.80;4.07;;;13.70;56.80;;;;;;5062509;28;20440;-79
2023/12/04 12:06:09;;;;;;;4.27;3.90;;;13.70;56.80;;;;;;5080627;28;20466;-79
2023/12/04 12:08:37;;;;;;;4.50;4.10;;;13.70;56.80;;;;;;5072904;28;20492;-79
2023/12/04 12:11:06;;;;;;;3.80;3.43;;;13.70;56.70;;;;;;5080006;28;20460;-78
2023/12/04 12:13:34;;;;;;;5.13;3.60;;;13.70;56.80;;;;;;5089887;28;20449;-77
2023/12/04 12:16:04;;;;;;;4.23;3.90;;;13.70;57.00;;;;;;5098998;28;20442;-78
2023/12/04 12:18:35;;;;;;;4.33;3.60;;;13.70;57.40;;;;;;5092879;28;20533;-78
2023/12/04 12:21:04;;;;;;;4.43;3.80;;;13.70;56.90;;;;;;5105449;28;20472;-79
2023/12/04 12:23:33;;;;;;;5.30;4.27;;;13.70;56.80;;;;;;5090619;28;20460;-77
2023/12/04 12:26:01;;;;;;;4.90;3.63;;;13.70;57.00;;;;;;5074324;28;20438;-79
2023/12/04 12:28:29;;;;;;;4.40;4.00;;;13.70;57.00;;;;;;5063233;28;20553;-79
2023/12/04 12:30:57;;;;;;;4.73;4.20;;;13.70;57.00;;;;;;5072680;28;20437;-79
2023/12/04 12:33:27;;;;;;;3.73;3.43;;;13.70;57.00;;;;;;5072803;28;20442;-78
2023/12/04 12:35:55;;;;;;;4.33;3.63;;;13.70;56.90;;;;;;5074009;28;20442;-78
2023/12/04 12:38:34;;;;;;;4.10;3.63;;;13.70;56.90;;;;;;5074174;28;20465;-79
2023/12/04 12:41:03;;;;;;;5.20;3.70;;;13.70;56.90;;;;;;5074458;28;20469;-79
2023/12/04 12:43:33;;;;;;;4.43;3.83;;;13.70;56.80;;;;;;5074430;28;20453;-78
2023/12/04 12:46:03;;;;;;;3.50;3.20;;;13.70;57.00;;;;;;5074337;28;20540;-79